createdAt,value
2022-08-14T05:39:28.186Z,99.90
2022-08-14T05:41:56.711Z,99.90
2022-08-14T05:44:29.845Z,99.90
2022-08-14T05:46:58.181Z,99.90
2022-08-14T05:49:33.043Z,99.90
2022-08-14T05:52:02.504Z,99.90
2022-08-14T05:54:35.747Z,99.90
2022-08-14T05:57:04.406Z,99.90
2022-08-14T05:59:39.182Z,99.90
2022-08-14T06:02:10.178Z,99.90
2022-08-14T06:04:38.548Z,99.90
2022-08-14T06:07:07.057Z,99.90
2022-08-14T06:09:40.833Z,99.90
2022-08-14T06:12:09.655Z,99.90
2022-08-14T06:14:38.730Z,99.90
2022-08-14T06:17:07.298Z,99.90
2022-08-14T06:19:35.401Z,99.90
2022-08-14T06:22:03.376Z,99.90
2022-08-14T06:24:34.698Z,99.90
2022-08-14T06:27:09.823Z,99.90
2022-08-14T06:29:38.788Z,99.90
2022-08-14T06:32:36.800Z,99.90
2022-08-14T06:35:03.241Z,99.90
2022-08-14T06:37:43.583Z,99.90
2022-08-14T06:40:25.497Z,99.90
2022-08-14T06:43:00.445Z,99.90
2022-08-14T06:45:32.142Z,99.90
2022-08-14T06:48:01.285Z,99.90
2022-08-14T06:50:31.594Z,99.90
2022-08-14T06:53:01.971Z,99.90
2022-08-14T06:55:30.012Z,99.90
2022-08-14T06:57:59.355Z,99.90
2022-08-14T07:00:30.528Z,99.90
2022-08-14T07:03:17.089Z,99.90
2022-08-14T07:05:58.150Z,99.90
2022-08-14T07:08:31.794Z,99.90
2022-08-14T07:11:04.117Z,99.90
2022-08-14T07:13:33.922Z,99.90
2022-08-14T07:16:05.631Z,99.90
2022-08-14T07:18:35.624Z,99.90
2022-08-14T07:21:05.847Z,99.90
2022-08-14T07:23:39.924Z,99.90
2022-08-14T07:26:10.183Z,99.90
2022-08-14T07:28:43.101Z,99.90
2022-08-14T07:31:13.080Z,99.90
2022-08-14T07:33:50.356Z,99.90
2022-08-14T07:36:27.930Z,99.90
2022-08-14T07:38:58.789Z,99.90
2022-08-14T07:41:31.144Z,99.90
2022-08-14T07:44:32.886Z,99.90
2022-08-14T07:46:51.722Z,99.90
2022-08-14T07:49:19.972Z,99.90
2022-08-14T07:51:49.747Z,99.90
2022-08-14T07:54:22.901Z,99.90
2022-08-14T07:56:57.754Z,99.90
2022-08-14T07:59:40.960Z,99.90
2022-08-14T08:02:18.110Z,99.90
2022-08-14T08:04:53.134Z,99.90
2022-08-14T08:07:23.254Z,99.90
2022-08-14T08:09:55.364Z,99.90
2022-08-14T08:12:29.777Z,99.90
2022-08-14T08:15:07.269Z,99.80
2022-08-14T08:17:38.581Z,99.40
2022-08-14T08:20:20.240Z,99.40
2022-08-14T08:22:55.584Z,99.10
2022-08-14T08:25:25.157Z,98.70
2022-08-14T08:28:08.059Z,98.60
2022-08-14T08:30:45.032Z,98.70
2022-08-14T08:33:19.282Z,98.80
2022-08-14T08:35:50.633Z,98.40
2022-08-14T08:39:17.196Z,98.10
2022-08-14T08:41:11.371Z,98.00
2022-08-14T08:43:45.810Z,98.00
2022-08-14T08:46:24.091Z,96.90
2022-08-14T08:51:25.104Z,97.60
2022-08-14T08:54:00.790Z,96.30
2022-08-14T08:56:39.939Z,95.80
2022-08-14T08:59:20.293Z,94.90
2022-08-14T09:01:56.436Z,94.90
2022-08-14T09:04:27.207Z,94.60
2022-08-14T09:07:10.475Z,94.00
2022-08-14T09:09:54.323Z,93.80
2022-08-14T09:12:32.172Z,93.70
2022-08-14T09:15:12.596Z,93.60
2022-08-14T09:17:42.966Z,93.40
2022-08-14T09:20:12.674Z,93.10
2022-08-14T09:22:48.347Z,92.90
2022-08-14T09:25:17.381Z,93.10
2022-08-14T09:27:48.176Z,93.20
2022-08-14T09:30:32.692Z,93.00
2022-08-14T09:33:22.846Z,93.00
2022-08-14T09:36:07.885Z,93.30
2022-08-14T09:38:47.328Z,93.10
2022-08-14T09:42:17.413Z,93.50
2022-08-14T09:44:38.660Z,92.70
2022-08-14T09:47:11.184Z,92.80
2022-08-14T09:49:53.092Z,93.00
2022-08-14T09:52:33.148Z,93.40
2022-08-14T09:55:02.762Z,93.20
2022-08-14T09:57:32.030Z,92.50
2022-08-14T10:00:30.619Z,91.80
2022-08-14T10:03:05.227Z,91.50
2022-08-14T10:05:39.147Z,91.20
2022-08-14T10:08:25.468Z,90.60
2022-08-14T10:11:02.857Z,89.50
2022-08-14T10:13:52.566Z,85.30
2022-08-14T10:16:21.872Z,83.20
2022-08-14T10:19:05.186Z,82.70
2022-08-14T10:21:38.694Z,81.50
2022-08-14T10:24:36.315Z,80.90
2022-08-14T10:27:17.063Z,81.10
2022-08-14T10:29:50.200Z,79.20
2022-08-14T10:32:28.702Z,77.10
2022-08-14T10:35:09.319Z,76.90
2022-08-14T10:37:49.501Z,76.40
2022-08-14T10:40:38.653Z,74.70
2022-08-14T10:43:23.681Z,75.30
2022-08-14T10:46:03.627Z,71.30
2022-08-14T10:48:58.634Z,72.10
2022-08-14T10:51:36.103Z,71.90
2022-08-14T10:54:26.252Z,70.60
2022-08-14T10:56:58.246Z,69.70
2022-08-14T10:59:30.985Z,67.10
2022-08-14T11:02:03.600Z,67.50
2022-08-14T11:04:32.082Z,68.10
2022-08-14T11:07:01.514Z,67.10
2022-08-14T11:09:32.267Z,67.20
2022-08-14T11:12:36.048Z,66.80
2022-08-14T11:14:59.392Z,66.80
2022-08-14T11:17:32.234Z,67.10
2022-08-14T11:20:02.465Z,68.20
2022-08-14T11:22:55.729Z,67.80
2022-08-14T11:25:24.471Z,67.10
2022-08-14T11:28:10.975Z,66.20
2022-08-14T11:30:51.369Z,65.40
2022-08-14T11:33:24.549Z,65.20
2022-08-14T11:35:53.686Z,64.60
2022-08-14T11:38:29.089Z,64.70
2022-08-14T11:41:00.426Z,64.90
2022-08-14T11:43:30.706Z,64.80
2022-08-14T11:46:03.478Z,64.40
2022-08-14T11:49:03.884Z,60.40
2022-08-14T11:51:25.121Z,60.30
2022-08-14T11:54:02.902Z,60.30
2022-08-14T11:56:39.712Z,60.20
2022-08-14T11:59:10.971Z,60.10
2022-08-14T12:01:41.104Z,60.10
2022-08-14T12:04:31.945Z,60.70
2022-08-14T12:07:00.879Z,60.90
2022-08-14T12:09:31.221Z,59.90
2022-08-14T12:12:01.060Z,60.80
2022-08-14T12:14:35.985Z,60.70
2022-08-14T12:17:13.024Z,60.80
2022-08-14T12:20:00.223Z,60.70
2022-08-14T12:22:37.010Z,60.20
2022-08-14T12:25:11.077Z,59.90
2022-08-14T12:27:51.986Z,59.70
2022-08-14T12:30:37.653Z,60.60
2022-08-14T12:33:24.056Z,60.00
2022-08-14T12:35:56.484Z,60.00
2022-08-14T12:38:38.317Z,59.20
2022-08-14T12:41:11.783Z,59.50
2022-08-14T12:43:53.500Z,59.10
2022-08-14T12:46:27.539Z,59.40
2022-08-14T12:48:57.521Z,58.90
2022-08-14T12:51:27.639Z,59.60
2022-08-14T12:53:59.553Z,59.00
2022-08-14T12:56:33.154Z,58.40
2022-08-14T12:59:04.606Z,58.40
2022-08-14T13:01:59.738Z,58.60
2022-08-14T13:04:22.923Z,59.00
2022-08-14T13:06:53.128Z,58.90
2022-08-14T13:09:35.734Z,59.40
2022-08-14T13:12:31.353Z,59.10
2022-08-14T13:14:59.700Z,59.10
2022-08-14T13:17:38.130Z,59.30
2022-08-14T13:20:10.021Z,58.50
2022-08-14T13:22:42.718Z,58.10
2022-08-14T13:25:15.862Z,58.70
2022-08-14T13:27:46.368Z,58.60
2022-08-14T13:30:23.767Z,58.60
2022-08-14T13:32:53.908Z,57.70
2022-08-14T13:35:23.127Z,58.00
2022-08-14T13:37:53.502Z,58.00
2022-08-14T13:40:26.295Z,57.20
2022-08-14T13:42:56.721Z,57.90
2022-08-14T13:45:33.609Z,57.70
2022-08-14T13:48:27.726Z,58.20
2022-08-14T13:51:02.044Z,57.50
2022-08-14T13:53:35.023Z,57.40
2022-08-14T13:56:07.402Z,57.10
2022-08-14T13:58:46.872Z,57.40
2022-08-14T14:01:18.893Z,57.50
2022-08-14T14:03:51.451Z,57.30
2022-08-14T14:06:24.506Z,57.60
2022-08-14T14:08:59.159Z,57.60
2022-08-14T14:11:30.114Z,57.70
2022-08-14T14:14:00.402Z,57.40
2022-08-14T14:16:30.411Z,57.50
2022-08-14T14:19:09.145Z,57.10
2022-08-14T14:21:40.713Z,57.10
2022-08-14T14:24:11.826Z,57.10
2022-08-14T14:26:46.581Z,57.50
2022-08-14T14:29:16.069Z,56.10
2022-08-14T14:31:49.794Z,56.60
2022-08-14T14:34:29.048Z,56.50
2022-08-14T14:37:02.828Z,56.70
2022-08-14T14:39:37.592Z,56.50
2022-08-14T14:42:08.292Z,56.20
2022-08-14T14:44:40.540Z,56.70
2022-08-14T14:47:12.365Z,56.90
2022-08-14T14:49:55.029Z,56.30
2022-08-14T14:52:27.613Z,57.00
2022-08-14T14:54:58.452Z,57.00
2022-08-14T14:57:35.501Z,57.60
2022-08-14T15:00:06.934Z,57.70
2022-08-14T15:02:44.602Z,57.90
2022-08-14T15:05:16.038Z,57.60
2022-08-14T15:07:45.251Z,57.60
2022-08-14T15:10:27.613Z,58.00
2022-08-14T15:13:00.155Z,58.50
2022-08-14T15:15:32.703Z,58.30
2022-08-14T15:18:02.398Z,58.30
2022-08-14T15:20:34.572Z,58.70
2022-08-14T15:23:11.725Z,58.60
2022-08-14T15:25:40.823Z,58.30
2022-08-14T15:28:12.600Z,58.50
2022-08-14T15:30:41.729Z,58.90
2022-08-14T15:33:11.821Z,59.40
2022-08-14T15:35:44.863Z,59.90
2022-08-14T15:38:17.775Z,60.00
2022-08-14T15:40:51.440Z,59.90
2022-08-14T15:43:27.415Z,60.00
2022-08-14T15:45:59.522Z,60.30
2022-08-14T15:48:32.083Z,60.40
2022-08-14T15:51:00.094Z,60.40
2022-08-14T15:53:32.631Z,60.80
2022-08-14T15:56:00.634Z,60.90
2022-08-14T15:58:28.760Z,60.30
2022-08-14T16:01:22.580Z,60.00
2022-08-14T16:04:03.932Z,60.10
2022-08-14T16:06:35.411Z,60.10
2022-08-14T16:09:11.118Z,60.70
2022-08-14T16:11:47.422Z,60.30
2022-08-14T16:14:21.543Z,60.40
2022-08-14T16:17:00.130Z,60.10
2022-08-14T16:19:44.544Z,60.10
2022-08-14T16:22:57.351Z,60.10
2022-08-14T16:25:03.418Z,60.50
2022-08-14T16:27:34.250Z,60.60
2022-08-14T16:30:12.289Z,60.80
2022-08-14T16:32:54.556Z,60.90
2022-08-14T16:35:43.028Z,60.90
2022-08-14T16:38:35.784Z,60.90
2022-08-14T16:41:22.971Z,60.60
2022-08-14T16:43:59.437Z,61.40
2022-08-14T16:46:28.730Z,61.20
2022-08-14T16:48:58.736Z,61.20
2022-08-14T16:51:34.960Z,61.60
2022-08-14T16:54:34.448Z,61.70
2022-08-14T16:56:56.427Z,61.80
2022-08-14T16:59:30.341Z,61.90
2022-08-14T17:02:05.219Z,62.00
2022-08-14T17:04:34.676Z,61.60
2022-08-14T17:07:14.128Z,62.40
2022-08-14T17:09:45.077Z,61.50
2022-08-14T17:12:29.015Z,61.90
2022-08-14T17:15:09.926Z,61.40
2022-08-14T17:17:52.736Z,61.90
2022-08-14T17:20:39.351Z,61.90
2022-08-14T17:23:17.554Z,61.80
2022-08-14T17:25:50.980Z,61.20
2022-08-14T17:28:50.108Z,61.20
2022-08-14T17:31:09.572Z,61.40
2022-08-14T17:33:44.317Z,61.50
2022-08-14T17:36:21.091Z,61.70
2022-08-14T17:39:11.794Z,61.70
2022-08-14T17:41:44.233Z,61.90
2022-08-14T17:44:45.240Z,62.00
2022-08-14T17:47:17.803Z,62.20
2022-08-14T17:49:51.670Z,62.60
2022-08-14T17:52:34.127Z,62.30
2022-08-14T17:55:07.029Z,61.90
2022-08-14T17:57:41.112Z,62.20
2022-08-14T18:00:13.064Z,62.30
2022-08-14T18:02:50.677Z,62.00
2022-08-14T18:05:23.471Z,61.90
2022-08-14T18:08:34.338Z,62.20
2022-08-14T18:10:58.206Z,62.90
2022-08-14T18:13:51.123Z,64.90
2022-08-14T18:16:20.357Z,65.80
2022-08-14T18:18:51.988Z,66.40
2022-08-14T18:21:40.212Z,66.70
2022-08-14T18:24:20.100Z,67.10
2022-08-14T18:27:06.889Z,67.40
2022-08-14T18:29:43.467Z,67.70
2022-08-14T18:32:47.262Z,67.80
2022-08-14T18:35:18.447Z,67.90
2022-08-14T18:37:55.781Z,68.00
2022-08-14T18:40:34.253Z,68.20
2022-08-14T18:43:04.591Z,68.40
2022-08-14T18:45:33.933Z,68.50
2022-08-14T18:48:28.844Z,69.50
2022-08-14T18:51:45.785Z,68.80
2022-08-14T18:54:29.731Z,69.10
2022-08-14T18:57:02.222Z,69.30
2022-08-14T18:59:35.842Z,69.30
2022-08-14T19:02:42.782Z,69.50
2022-08-14T19:05:11.281Z,69.90
2022-08-14T19:07:40.863Z,70.10
2022-08-14T19:10:17.093Z,70.10
2022-08-14T19:13:00.312Z,70.70
2022-08-14T19:15:32.010Z,70.50
2022-08-14T19:18:10.841Z,70.80
2022-08-14T19:20:47.598Z,71.10
2022-08-14T19:23:18.320Z,71.30
2022-08-14T19:25:52.828Z,71.30
2022-08-14T19:28:31.641Z,71.40
2022-08-14T19:31:37.084Z,71.40
2022-08-14T19:34:30.082Z,71.60
2022-08-14T19:37:06.670Z,71.90
2022-08-14T19:39:54.119Z,72.10
2022-08-14T19:42:28.407Z,72.10
2022-08-14T19:44:58.907Z,72.40
2022-08-14T19:47:38.820Z,72.50
2022-08-14T19:50:30.913Z,72.60
2022-08-14T19:53:16.505Z,72.60
2022-08-14T19:55:59.033Z,72.80
2022-08-14T19:58:55.116Z,72.70
2022-08-14T20:01:37.566Z,72.80
2022-08-14T20:04:08.402Z,72.90
2022-08-14T20:07:00.136Z,73.10
2022-08-14T20:11:04.105Z,73.10
2022-08-14T20:12:35.565Z,73.20
2022-08-14T20:15:08.826Z,73.60
2022-08-14T20:17:40.393Z,74.30
2022-08-14T20:20:20.899Z,74.80
2022-08-14T20:23:02.453Z,75.30
2022-08-14T20:25:45.311Z,75.80
2022-08-14T20:28:30.669Z,76.20
2022-08-14T20:31:14.193Z,76.60
2022-08-14T20:34:06.195Z,76.70
2022-08-14T20:36:39.989Z,77.10
2022-08-14T20:39:15.467Z,77.20
2022-08-14T20:41:51.181Z,77.30
2022-08-14T20:44:40.619Z,77.40
2022-08-14T20:47:08.694Z,78.30
2022-08-14T20:49:37.321Z,77.30
2022-08-14T20:52:18.808Z,77.40
2022-08-14T20:54:51.735Z,77.60
2022-08-14T20:57:20.771Z,78.70
2022-08-14T20:59:53.619Z,78.10
2022-08-14T21:02:46.276Z,78.40
2022-08-14T21:05:33.474Z,78.70
2022-08-14T21:08:09.757Z,79.10
2022-08-14T21:10:51.841Z,79.50
2022-08-14T21:13:27.559Z,79.80
2022-08-14T21:16:33.579Z,80.30
2022-08-14T21:19:00.029Z,80.50
2022-08-14T21:21:40.608Z,80.80
2022-08-14T21:24:40.101Z,81.20
2022-08-14T21:27:12.347Z,81.60
2022-08-14T21:29:53.877Z,81.80
2022-08-14T21:32:35.182Z,82.10
2022-08-14T21:35:08.208Z,82.50
2022-08-14T21:37:43.973Z,82.80
2022-08-14T21:40:18.575Z,83.10
2022-08-14T21:43:01.631Z,83.30
2022-08-14T21:45:35.605Z,83.70
2022-08-14T21:48:10.816Z,84.00
2022-08-14T21:51:01.123Z,84.20
2022-08-14T21:53:33.865Z,84.70
2022-08-14T21:56:03.538Z,85.10
2022-08-14T21:58:52.546Z,85.40
2022-08-14T22:01:21.565Z,85.90
2022-08-14T22:03:54.880Z,86.90
2022-08-14T22:06:29.057Z,87.50
2022-08-14T22:08:58.164Z,87.80
2022-08-14T22:11:27.553Z,88.20
2022-08-14T22:14:02.166Z,88.00
